createdAt,value
2022-09-20T00:00:47.981Z,1.10
2022-09-20T00:03:16.376Z,1.00
2022-09-20T00:05:45.963Z,1.05
2022-09-20T00:08:15.446Z,0.88
2022-09-20T00:10:43.342Z,1.13
2022-09-20T00:13:12.721Z,0.88
2022-09-20T00:15:45.243Z,1.13
2022-09-20T00:18:12.985Z,0.90
2022-09-20T00:20:53.671Z,1.08
2022-09-20T00:23:20.787Z,0.93
2022-09-20T00:25:55.860Z,1.38
2022-09-20T00:28:22.816Z,1.45
2022-09-20T00:30:49.675Z,1.80
2022-09-20T00:33:16.629Z,1.00
2022-09-20T00:35:44.735Z,0.93
2022-09-20T00:38:13.825Z,1.17
2022-09-20T00:40:45.279Z,1.27
2022-09-20T00:43:16.506Z,1.50
2022-09-20T00:45:46.740Z,1.20
2022-09-20T00:48:16.091Z,1.08
2022-09-20T00:50:58.699Z,1.20
2022-09-20T00:53:37.049Z,1.00
2022-09-20T00:56:12.061Z,1.10
2022-09-20T00:58:45.035Z,0.90
2022-09-20T01:01:12.762Z,0.90
2022-09-20T01:03:42.306Z,0.90
2022-09-20T01:06:12.466Z,0.85
2022-09-20T01:08:41.679Z,0.90
2022-09-20T01:11:09.184Z,1.20
2022-09-20T01:13:36.491Z,1.02
2022-09-20T01:16:04.979Z,1.17
2022-09-20T01:18:33.029Z,0.70
2022-09-20T01:21:01.420Z,1.25
2022-09-20T01:23:37.582Z,0.75
2022-09-20T01:26:10.837Z,1.08
2022-09-20T01:28:39.079Z,0.88
2022-09-20T01:31:09.098Z,1.00
2022-09-20T01:34:14.662Z,1.05
2022-09-20T01:36:51.240Z,1.10
2022-09-20T01:39:18.587Z,0.88
2022-09-20T01:41:52.419Z,1.02
2022-09-20T01:44:22.662Z,1.40
2022-09-20T01:46:53.743Z,1.10
2022-09-20T01:49:21.597Z,1.10
2022-09-20T01:52:01.102Z,0.98
2022-09-20T01:54:34.048Z,1.00
2022-09-20T01:57:04.629Z,1.08
2022-09-20T01:59:43.934Z,1.00
2022-09-20T02:02:30.147Z,1.50
2022-09-20T02:05:15.943Z,1.00
2022-09-20T02:07:49.443Z,1.23
2022-09-20T02:10:19.706Z,1.10
2022-09-20T02:12:50.073Z,1.25
2022-09-20T02:15:17.446Z,1.35
2022-09-20T02:17:55.642Z,1.15
2022-09-20T02:20:41.710Z,1.38
2022-09-20T02:23:22.874Z,1.20
2022-09-20T02:26:11.109Z,1.15
2022-09-20T02:28:44.492Z,1.35
2022-09-20T02:31:29.027Z,1.10
2022-09-20T02:34:15.017Z,1.10
2022-09-20T02:36:45.377Z,1.02
2022-09-20T02:39:23.506Z,0.93
2022-09-20T02:41:53.883Z,0.95
2022-09-20T02:44:40.090Z,1.00
2022-09-20T02:47:13.176Z,1.23
2022-09-20T02:49:49.377Z,1.10
2022-09-20T02:52:35.555Z,0.98
2022-09-20T02:55:29.154Z,1.55
2022-09-20T02:58:04.519Z,1.10
2022-09-20T03:00:54.868Z,0.90
2022-09-20T03:03:35.439Z,1.38
2022-09-20T03:06:13.220Z,1.13
2022-09-20T03:09:11.041Z,1.25
2022-09-20T03:11:38.602Z,1.10
2022-09-20T03:14:15.034Z,1.17
2022-09-20T03:16:54.472Z,1.00
2022-09-20T03:19:36.910Z,0.85
2022-09-20T03:22:06.963Z,1.00
2022-09-20T03:24:37.019Z,0.95
2022-09-20T03:27:14.423Z,0.95
2022-09-20T03:29:49.511Z,0.95
2022-09-20T03:32:31.904Z,1.00
2022-09-20T03:35:28.550Z,0.93
2022-09-20T03:38:18.826Z,0.93
2022-09-20T03:41:04.381Z,1.33
2022-09-20T03:43:43.855Z,1.30
2022-09-20T03:46:18.911Z,1.42
2022-09-20T03:49:04.838Z,0.90
2022-09-20T03:51:44.179Z,1.20
2022-09-20T03:54:30.130Z,0.82
2022-09-20T03:57:05.359Z,0.90
2022-09-20T03:59:51.683Z,0.80
2022-09-20T04:02:45.133Z,0.95
2022-09-20T04:05:17.484Z,0.90
2022-09-20T04:07:55.045Z,0.90
2022-09-20T04:10:41.010Z,1.00
2022-09-20T04:13:14.445Z,0.90
2022-09-20T04:16:00.599Z,1.00
2022-09-20T04:18:46.280Z,0.80
2022-09-20T04:21:23.938Z,0.90
2022-09-20T04:24:03.720Z,1.08
2022-09-20T04:26:32.465Z,1.02
2022-09-20T04:29:09.753Z,0.90
2022-09-20T04:31:48.820Z,0.88
2022-09-20T04:34:21.766Z,1.17
2022-09-20T04:36:57.727Z,0.93
2022-09-20T04:39:31.034Z,0.90
2022-09-20T04:42:15.445Z,0.85
2022-09-20T04:44:48.882Z,0.90
2022-09-20T04:47:35.184Z,0.80
2022-09-20T04:50:15.490Z,1.05
2022-09-20T04:53:03.099Z,1.15
2022-09-20T04:55:42.079Z,1.27
2022-09-20T04:58:12.335Z,1.05
2022-09-20T05:00:58.535Z,0.80
2022-09-20T05:03:45.102Z,1.20
2022-09-20T05:06:15.602Z,0.80
2022-09-20T05:08:56.647Z,1.42
2022-09-20T05:11:32.078Z,1.00
2022-09-20T05:17:16.671Z,1.13
2022-09-20T05:19:48.715Z,0.80
2022-09-20T05:22:24.808Z,1.00
2022-09-20T05:25:08.079Z,0.90
2022-09-20T05:27:53.263Z,0.90
2022-09-20T05:32:48.501Z,1.15
2022-09-20T05:35:29.266Z,1.02
2022-09-20T05:37:59.574Z,0.90
2022-09-20T05:40:46.047Z,1.08
2022-09-20T05:43:16.250Z,0.90
2022-09-20T05:46:02.454Z,1.10
2022-09-20T05:48:39.645Z,1.20
2022-09-20T05:51:12.968Z,1.30
2022-09-20T05:53:49.612Z,1.05
2022-09-20T05:56:55.841Z,1.65
2022-09-20T05:59:23.294Z,1.10
2022-09-20T06:01:50.999Z,0.95
2022-09-20T06:04:35.565Z,1.10
2022-09-20T06:07:05.560Z,1.33
2022-09-20T06:09:33.463Z,1.30
2022-09-20T06:12:18.028Z,0.82
2022-09-20T06:14:51.621Z,0.82
2022-09-20T06:17:21.635Z,0.93
2022-09-20T06:19:54.704Z,1.30
2022-09-20T06:22:34.121Z,1.20
2022-09-20T06:25:04.509Z,1.30
2022-09-20T06:27:35.659Z,1.10
2022-09-20T06:30:05.896Z,0.80
2022-09-20T06:32:34.735Z,1.10
2022-09-20T06:35:03.553Z,1.08
2022-09-20T06:38:09.419Z,1.08
2022-09-20T06:45:50.003Z,1.17
2022-09-20T06:48:19.342Z,1.17
2022-09-20T06:50:46.719Z,1.20
2022-09-20T06:53:16.758Z,1.33
2022-09-20T06:55:45.123Z,1.13
2022-09-20T06:58:12.584Z,1.38
2022-09-20T07:00:40.009Z,1.30
2022-09-20T07:03:07.935Z,1.00
2022-09-20T07:05:36.257Z,1.08
2022-09-20T07:08:04.040Z,1.38
2022-09-20T07:10:31.672Z,1.30
2022-09-20T07:13:00.419Z,1.30
2022-09-20T07:15:28.784Z,1.20
2022-09-20T07:17:56.523Z,1.70
2022-09-20T07:20:24.082Z,0.90
2022-09-20T07:22:51.543Z,0.90
2022-09-20T07:25:19.020Z,1.00
2022-09-20T07:27:46.679Z,0.95
2022-09-20T07:30:14.847Z,0.82
2022-09-20T07:32:42.485Z,0.95
2022-09-20T07:35:10.252Z,1.00
2022-09-20T07:37:37.596Z,0.95
2022-09-20T07:40:05.524Z,0.85
2022-09-20T07:42:32.520Z,1.15
2022-09-20T07:45:00.120Z,0.80
2022-09-20T07:47:27.776Z,0.90
2022-09-20T07:49:55.443Z,0.88
2022-09-20T07:52:22.353Z,1.20
2022-09-20T07:54:50.197Z,0.90
2022-09-20T07:57:17.388Z,1.10
2022-09-20T07:59:44.324Z,1.20
2022-09-20T08:02:15.703Z,0.90
2022-09-20T08:04:43.268Z,0.98
2022-09-20T08:07:10.579Z,0.80
2022-09-20T08:09:37.654Z,1.17
2022-09-20T08:14:52.686Z,0.82
2022-09-20T08:17:22.209Z,1.20
2022-09-20T08:19:50.712Z,1.20
2022-09-20T08:22:17.840Z,1.17
2022-09-20T08:24:44.805Z,1.30
2022-09-20T08:27:11.814Z,1.08
2022-09-20T08:29:39.185Z,0.85
2022-09-20T08:32:06.180Z,0.93
2022-09-20T08:34:33.114Z,0.90
2022-09-20T08:37:00.346Z,1.25
2022-09-20T08:42:42.134Z,1.42
2022-09-20T08:45:33.570Z,1.02
2022-09-20T08:48:07.266Z,0.90
2022-09-20T08:50:34.656Z,1.15
2022-09-20T08:53:06.031Z,1.40
2022-09-20T08:55:37.565Z,2.28
2022-09-20T08:58:08.507Z,1.88
2022-09-20T09:00:37.689Z,1.65
2022-09-20T09:03:17.160Z,1.25
2022-09-20T09:05:49.104Z,1.50
2022-09-20T09:08:26.178Z,1.27
2022-09-20T09:11:14.977Z,1.63
2022-09-20T09:14:01.390Z,1.35
2022-09-20T09:16:35.421Z,1.75
2022-09-20T09:21:48.438Z,1.75
2022-09-20T09:24:19.640Z,2.08
2022-09-20T09:26:46.646Z,1.40
2022-09-20T09:29:13.482Z,1.70
2022-09-20T09:31:40.734Z,1.30
2022-09-20T09:34:26.452Z,1.35
2022-09-20T09:36:57.142Z,1.30
2022-09-20T09:39:38.499Z,1.33
2022-09-20T09:42:28.897Z,1.00
2022-09-20T09:45:12.242Z,1.20
2022-09-20T09:47:39.156Z,1.52
2022-09-20T09:50:09.922Z,1.20
2022-09-20T09:52:37.056Z,1.40
2022-09-20T09:55:05.889Z,1.98
2022-09-20T09:58:14.402Z,1.30
2022-09-20T10:00:46.692Z,1.40
2022-09-20T10:03:22.066Z,1.20
2022-09-20T10:06:18.991Z,1.02
2022-09-20T10:09:00.946Z,1.00
2022-09-20T10:11:40.085Z,1.40
2022-09-20T10:14:23.017Z,0.80
2022-09-20T10:17:03.177Z,1.38
2022-09-20T10:20:08.187Z,1.02
2022-09-20T10:23:29.865Z,1.10
2022-09-20T10:26:11.258Z,1.45
2022-09-20T10:29:00.336Z,1.10
2022-09-20T10:31:56.343Z,1.13
2022-09-20T10:34:38.292Z,1.00
2022-09-20T10:37:22.771Z,0.68
2022-09-20T10:40:18.935Z,1.08
2022-09-20T10:43:12.082Z,0.80
2022-09-20T10:46:30.847Z,0.90
2022-09-20T10:49:04.027Z,0.70
2022-09-20T10:51:45.093Z,0.80
2022-09-20T10:54:32.045Z,0.98
2022-09-20T10:57:19.220Z,0.90
2022-09-20T10:59:54.887Z,0.90
2022-09-20T11:02:21.831Z,0.80
2022-09-20T11:05:03.484Z,0.90
2022-09-20T11:07:54.195Z,0.70
2022-09-20T11:10:25.558Z,0.82
2022-09-20T11:13:00.947Z,0.80
2022-09-20T11:15:44.158Z,0.85
2022-09-20T11:18:23.816Z,0.95
2022-09-20T11:21:15.193Z,0.70
2022-09-20T11:24:05.579Z,0.68
2022-09-20T11:26:40.083Z,0.90
2022-09-20T11:29:37.125Z,0.80
2022-09-20T11:32:15.885Z,0.68
2022-09-20T11:34:55.480Z,0.90
2022-09-20T11:37:24.947Z,0.80
2022-09-20T11:39:55.302Z,0.93
2022-09-20T11:42:32.980Z,0.80
2022-09-20T11:45:00.127Z,0.68
2022-09-20T11:47:54.066Z,0.73
2022-09-20T11:50:40.787Z,0.80
2022-09-20T11:53:38.957Z,0.60
2022-09-20T11:56:22.153Z,0.93
2022-09-20T11:58:59.697Z,0.95
2022-09-20T12:01:28.898Z,0.68
2022-09-20T12:04:32.211Z,0.82
2022-09-20T12:07:39.699Z,0.70
2022-09-20T12:10:18.686Z,0.93
2022-09-20T12:12:48.655Z,0.85
2022-09-20T12:15:26.286Z,0.70
2022-09-20T12:17:57.317Z,0.90
2022-09-20T12:20:34.398Z,0.80
2022-09-20T12:23:42.207Z,0.95
2022-09-20T12:26:13.387Z,1.00
2022-09-20T12:28:41.826Z,0.93
2022-09-20T12:31:21.838Z,0.80
2022-09-20T12:34:01.196Z,0.70
2022-09-20T12:36:35.509Z,1.00
2022-09-20T12:39:11.040Z,0.70
2022-09-20T12:41:59.621Z,0.80
2022-09-20T12:44:31.771Z,0.80
2022-09-20T12:47:16.026Z,0.90
2022-09-20T12:50:12.007Z,0.70
2022-09-20T12:52:50.722Z,0.70
2022-09-20T12:55:31.585Z,0.50
2022-09-20T12:58:02.210Z,0.85
2022-09-20T13:00:42.744Z,0.85
2022-09-20T13:03:21.316Z,0.73
2022-09-20T13:06:12.573Z,0.57
2022-09-20T13:09:00.219Z,0.68
2022-09-20T13:11:29.883Z,0.73
2022-09-20T13:14:04.353Z,1.00
2022-09-20T13:16:42.777Z,0.70
2022-09-20T13:19:23.234Z,0.63
2022-09-20T13:22:13.333Z,0.60
2022-09-20T13:24:47.909Z,0.60
2022-09-20T13:27:19.854Z,0.70
2022-09-20T13:29:47.325Z,0.80
2022-09-20T13:32:28.341Z,0.73
2022-09-20T13:35:19.473Z,0.82
2022-09-20T13:37:58.393Z,0.80
2022-09-20T13:40:47.809Z,0.82
2022-09-20T13:43:32.064Z,0.82
2022-09-20T13:46:20.145Z,0.70
2022-09-20T13:48:48.377Z,0.82
2022-09-20T13:51:19.004Z,0.60
2022-09-20T13:53:47.522Z,0.70
2022-09-20T13:56:28.779Z,0.60
2022-09-20T13:58:58.957Z,0.50
2022-09-20T14:01:34.640Z,0.55
2022-09-20T14:04:14.725Z,0.57
2022-09-20T14:06:42.519Z,0.70
2022-09-20T14:09:38.970Z,0.88
2022-09-20T14:12:06.792Z,0.68
2022-09-20T14:14:35.078Z,0.80
2022-09-20T14:17:06.623Z,0.80
2022-09-20T14:19:37.369Z,1.00
2022-09-20T14:22:05.362Z,0.70
2022-09-20T14:24:37.339Z,1.20
2022-09-20T14:27:26.711Z,0.88
2022-09-20T14:29:54.726Z,0.90
2022-09-20T14:32:21.674Z,0.73
2022-09-20T14:35:00.713Z,0.80
2022-09-20T14:37:43.431Z,0.88
2022-09-20T14:40:21.651Z,1.15
2022-09-20T14:42:55.774Z,0.80
2022-09-20T14:45:24.406Z,0.85
2022-09-20T14:48:17.400Z,0.80
2022-09-20T14:50:47.278Z,0.68
2022-09-20T14:53:26.864Z,1.00
2022-09-20T14:55:56.837Z,0.80
2022-09-20T14:58:26.143Z,0.80
2022-09-20T15:00:56.949Z,1.02
2022-09-20T15:03:33.113Z,1.10
2022-09-20T15:06:00.043Z,0.80
2022-09-20T15:08:27.507Z,0.70
2022-09-20T15:10:54.880Z,0.90
2022-09-20T15:13:21.967Z,1.05
2022-09-20T15:16:05.488Z,0.90
2022-09-20T15:18:37.057Z,0.93
2022-09-20T15:21:04.097Z,1.10
2022-09-20T15:23:31.010Z,0.80
2022-09-20T15:25:58.531Z,0.80
2022-09-20T15:28:26.725Z,1.00
2022-09-20T15:30:54.060Z,1.70
2022-09-20T15:33:21.834Z,0.75
2022-09-20T15:35:49.431Z,1.20
2022-09-20T15:38:18.576Z,1.15
2022-09-20T15:40:48.156Z,1.10
2022-09-20T15:43:22.508Z,1.38
2022-09-20T15:45:55.454Z,1.17
2022-09-20T15:48:26.087Z,1.02
2022-09-20T15:51:05.658Z,1.00
2022-09-20T15:53:38.549Z,1.15
2022-09-20T15:56:23.831Z,1.38
2022-09-20T15:58:59.177Z,1.75
2022-09-20T16:01:40.699Z,1.17
2022-09-20T16:04:13.263Z,1.10
2022-09-20T16:06:42.132Z,1.20
2022-09-20T16:09:09.467Z,1.23
2022-09-20T16:11:37.236Z,0.98
2022-09-20T16:14:04.684Z,1.30
2022-09-20T16:16:38.938Z,1.10
2022-09-20T16:19:22.379Z,1.08
2022-09-20T16:21:58.309Z,1.52
2022-09-20T16:24:31.004Z,3.22
2022-09-20T16:27:00.749Z,2.60
2022-09-20T16:29:30.025Z,5.00
2022-09-20T16:31:58.796Z,4.68
2022-09-20T16:34:31.277Z,2.60
2022-09-20T16:37:00.699Z,2.15
2022-09-20T16:39:29.553Z,1.33
2022-09-20T16:42:05.093Z,1.20
2022-09-20T16:44:37.048Z,1.20
2022-09-20T16:47:09.065Z,0.90
2022-09-20T16:49:36.900Z,1.10
2022-09-20T16:52:08.717Z,1.10
2022-09-20T16:54:36.121Z,1.17
2022-09-20T16:57:03.333Z,0.85
2022-09-20T16:59:30.195Z,1.23
2022-09-20T17:01:57.432Z,0.90
2022-09-20T17:04:24.401Z,1.00
2022-09-20T17:06:51.891Z,1.20
2022-09-20T17:09:20.790Z,1.08
2022-09-20T17:11:50.038Z,0.90
2022-09-20T17:14:19.223Z,1.33
2022-09-20T17:16:50.485Z,1.23
2022-09-20T17:19:20.021Z,1.00
2022-09-20T17:21:50.198Z,1.30
2022-09-20T17:24:19.463Z,1.40
2022-09-20T17:26:47.193Z,1.20
2022-09-20T17:29:17.032Z,1.38
2022-09-20T17:31:51.573Z,1.30
2022-09-20T17:34:22.010Z,1.60
2022-09-20T17:36:50.575Z,1.20
2022-09-20T17:39:17.892Z,1.23
2022-09-20T17:41:47.332Z,1.30
2022-09-20T17:44:15.270Z,1.25
2022-09-20T17:46:44.660Z,1.40
2022-09-20T17:49:18.127Z,1.40
2022-09-20T17:51:53.727Z,1.30
2022-09-20T17:54:22.070Z,1.08
2022-09-20T17:56:50.827Z,1.67
2022-09-20T17:59:18.937Z,1.50
2022-09-20T18:01:48.020Z,1.50
2022-09-20T18:04:15.942Z,1.52
2022-09-20T18:06:51.393Z,1.63
2022-09-20T18:09:28.185Z,1.52
2022-09-20T18:11:56.255Z,1.67
2022-09-20T18:14:27.993Z,1.40
2022-09-20T18:16:58.291Z,1.73
2022-09-20T18:19:32.367Z,1.60
2022-09-20T18:22:01.005Z,1.77
2022-09-20T18:24:28.069Z,1.58
2022-09-20T18:26:54.982Z,1.85
2022-09-20T18:29:22.628Z,1.63
2022-09-20T18:31:52.198Z,1.52
2022-09-20T18:34:24.491Z,1.55
2022-09-20T18:36:53.684Z,1.35
2022-09-20T18:39:25.615Z,1.27
2022-09-20T18:41:53.266Z,1.50
2022-09-20T18:44:21.156Z,1.70
2022-09-20T18:46:48.990Z,1.38
2022-09-20T18:49:20.586Z,1.50
2022-09-20T18:51:48.424Z,1.80
2022-09-20T18:54:16.052Z,1.60
2022-09-20T18:56:44.774Z,1.52
2022-09-20T18:59:26.711Z,1.75
2022-09-20T19:02:20.573Z,1.63
2022-09-20T19:05:14.102Z,1.42
2022-09-20T19:07:52.692Z,1.45
2022-09-20T19:10:41.352Z,1.50
2022-09-20T19:13:17.184Z,1.38
2022-09-20T19:15:55.483Z,1.20
2022-09-20T19:18:49.675Z,1.88
2022-09-20T19:21:36.762Z,1.45
2022-09-20T19:24:31.625Z,1.25
2022-09-20T19:26:58.721Z,1.35
2022-09-20T19:29:27.764Z,1.10
2022-09-20T19:31:57.516Z,1.30
2022-09-20T19:34:27.282Z,1.23
2022-09-20T19:37:18.421Z,1.20
2022-09-20T19:40:00.601Z,1.27
2022-09-20T19:42:42.513Z,1.30
2022-09-20T19:45:47.236Z,1.50
2022-09-20T19:48:23.818Z,1.30
2022-09-20T19:50:52.973Z,1.08
2022-09-20T19:53:27.053Z,1.10
2022-09-20T19:56:15.229Z,1.10
2022-09-20T19:58:45.387Z,1.35
2022-09-20T20:01:13.022Z,1.20
2022-09-20T20:03:40.030Z,1.40
2022-09-20T20:06:16.289Z,1.55
2022-09-20T20:08:59.855Z,1.38
2022-09-20T20:11:45.513Z,1.10
2022-09-20T20:14:19.038Z,1.30
2022-09-20T20:16:56.069Z,1.60
2022-09-20T20:19:41.860Z,1.52
2022-09-20T20:22:32.262Z,1.77
2022-09-20T20:24:59.474Z,1.80
2022-09-20T20:27:31.375Z,1.70
2022-09-20T20:29:58.722Z,1.67
2022-09-20T20:32:25.943Z,1.90
2022-09-20T20:34:52.879Z,1.67
2022-09-20T20:37:23.971Z,1.92
2022-09-20T20:39:52.155Z,1.70
2022-09-20T20:45:31.208Z,1.73
2022-09-20T20:47:58.795Z,2.00
2022-09-20T20:50:27.122Z,1.80
2022-09-20T20:52:57.522Z,1.50
2022-09-20T20:55:24.868Z,1.85
2022-09-20T20:57:58.472Z,1.42
2022-09-20T21:00:28.695Z,1.98
2022-09-20T21:02:58.360Z,1.48
2022-09-20T21:05:26.676Z,1.52
2022-09-20T21:07:54.814Z,1.52
2022-09-20T21:10:23.727Z,1.20
2022-09-20T21:12:54.493Z,1.20
2022-09-20T21:15:22.064Z,1.30
2022-09-20T21:17:53.206Z,1.25
2022-09-20T21:20:21.582Z,1.33
2022-09-20T21:22:48.594Z,1.20
2022-09-20T21:25:15.469Z,1.40
2022-09-20T21:27:42.768Z,1.27
2022-09-20T21:30:10.093Z,1.50
2022-09-20T21:32:36.977Z,1.20
2022-09-20T21:35:04.069Z,1.33
2022-09-20T21:37:31.013Z,1.50
2022-09-20T21:39:57.889Z,1.30
2022-09-20T21:42:27.232Z,1.50
2022-09-20T21:44:54.424Z,1.55
2022-09-20T21:47:21.218Z,1.42
2022-09-20T21:49:48.276Z,1.42
2022-09-20T21:52:15.605Z,1.33
2022-09-20T21:54:46.397Z,1.60
2022-09-20T21:57:13.908Z,1.42
2022-09-20T21:59:41.559Z,1.30
2022-09-20T22:02:09.129Z,1.20
2022-09-20T22:04:36.176Z,1.50
2022-09-20T22:07:04.489Z,1.98
2022-09-20T22:09:31.397Z,1.50
2022-09-20T22:11:58.505Z,1.40
2022-09-20T22:14:25.360Z,1.77
2022-09-20T22:16:52.661Z,1.42
2022-09-20T22:19:20.592Z,1.70
2022-09-20T22:21:49.840Z,1.70
2022-09-20T22:24:17.842Z,1.50
2022-09-20T22:26:46.282Z,1.40
2022-09-20T22:29:13.785Z,1.38
2022-09-20T22:31:45.276Z,1.10
2022-09-20T22:34:22.870Z,1.63
2022-09-20T22:36:50.301Z,2.00
2022-09-20T22:39:17.450Z,1.77
2022-09-20T22:41:44.932Z,1.50
2022-09-20T22:44:11.935Z,1.48
2022-09-20T22:46:39.592Z,1.52
2022-09-20T22:49:07.883Z,1.35
2022-09-20T22:51:35.840Z,1.60
2022-09-20T22:54:11.001Z,2.05
2022-09-20T22:56:39.408Z,2.15
2022-09-20T22:59:09.265Z,2.10
2022-09-20T23:01:38.655Z,1.95
2022-09-20T23:04:11.177Z,2.50
2022-09-20T23:06:40.894Z,2.10
2022-09-20T23:09:09.452Z,2.53
2022-09-20T23:11:36.879Z,2.42
2022-09-20T23:14:06.082Z,2.40
2022-09-20T23:16:34.987Z,2.70
2022-09-20T23:19:02.761Z,2.63
2022-09-20T23:21:30.555Z,2.72
2022-09-20T23:23:58.714Z,3.22
2022-09-20T23:26:26.647Z,3.00
2022-09-20T23:28:55.575Z,3.00
2022-09-20T23:31:23.337Z,3.00
2022-09-20T23:33:51.589Z,3.25
2022-09-20T23:36:19.893Z,3.33
2022-09-20T23:38:47.720Z,3.20
2022-09-20T23:41:16.286Z,3.08
2022-09-20T23:43:43.808Z,3.38
2022-09-20T23:46:12.064Z,3.42
2022-09-20T23:48:41.752Z,3.03
2022-09-20T23:51:09.900Z,2.72
2022-09-20T23:53:37.420Z,2.50
2022-09-20T23:56:06.160Z,3.28
2022-09-20T23:58:43.734Z,3.38
